Airfield :
LOGIN :

Register | Disclaimer

   EN    FR    IT 

 










Legend :    VFR   Marginal VFR   IFR   Intensive IFR   Very Intensive IFR
Visi :
Ceiling :
>= 8 km
>= 3000ft
5 to 8 km
1000 to 3000 ft
1500m to 5 km
500 to 1000 ft
800 to 1500m
200 to 500 ft
< 800m
< 200 ft
Symbols :   Thunderstorms  Fog  Heavy snow  Heavy precipitations  Wind > 20 kt
SIGMETs :     Misc.  Thunderstorms  Icing  Turbulence  Mountain Waves  Volcanic Ashes






- Airport Elevation : 191 ft
- IATA code : RNB


ESDF - Ronneby

CURRENT METAR :
  • 150820Z 08007KT 040V120 CAVOK 25/22 Q1010

EXPIRED METARs :
  • 150750Z 10007KT 070V130 CAVOK 25/21 Q1010
  • 150720Z 10008KT CAVOK 24/21 Q1010
  • 150650Z 08006KT CAVOK 23/20 Q1010
  • 150620Z 09007KT CAVOK 22/20 Q1010
  • 150550Z 07007KT CAVOK 21/19 Q1010

TAF TAF ESDF
Valid from the 15 at 09:00 until the 15 at 18:00 UTC


150830Z 1509/1518 10008KT CAVOK RMK MIL



MET'MAP, your aeronautical weather chart ! - Copyright ORBIFLY December 2007 - Disclaimer

ORBIFLY MET'MAP TEAM :

Programming & Development : Alexandra Zaïnal
Original concept : Baudouin d'Aumeries
Technical & hardware support : Manuel Goepfert
Assistance : Marc-Olivier Méhu




SOURCES & CREDITS :

   NOAA